sensor_id;sensor_type;location;lat;lon;timestamp;P1;durP1;ratioP1;P2;durP2;ratioP2
69463;SDS011;56665;41.106;16.688;2022-07-26T00:01:25;12.48;;;8.60;;
69463;SDS011;56665;41.106;16.688;2022-07-26T00:04:29;12.25;;;8.80;;
69463;SDS011;56665;41.106;16.688;2022-07-26T00:07:33;10.73;;;8.65;;
69463;SDS011;56665;41.106;16.688;2022-07-26T00:10:41;13.98;;;8.80;;
69463;SDS011;56665;41.106;16.688;2022-07-26T00:13:50;11.70;;;8.30;;
69463;SDS011;56665;41.106;16.688;2022-07-26T00:16:54;10.55;;;8.70;;
69463;SDS011;56665;41.106;16.688;2022-07-26T00:19:58;12.85;;;8.95;;
69463;SDS011;56665;41.106;16.688;2022-07-26T00:23:02;10.70;;;8.35;;
69463;SDS011;56665;41.106;16.688;2022-07-26T00:26:05;11.60;;;8.10;;
69463;SDS011;56665;41.106;16.688;2022-07-26T00:29:09;9.23;;;7.93;;
69463;SDS011;56665;41.106;16.688;2022-07-26T00:32:14;12.77;;;8.32;;
69463;SDS011;56665;41.106;16.688;2022-07-26T00:35:19;11.13;;;8.30;;
69463;SDS011;56665;41.106;16.688;2022-07-26T00:38:23;10.90;;;8.20;;
69463;SDS011;56665;41.106;16.688;2022-07-26T00:41:27;10.93;;;8.60;;
69463;SDS011;56665;41.106;16.688;2022-07-26T00:44:38;11.93;;;8.97;;
69463;SDS011;56665;41.106;16.688;2022-07-26T00:47:42;11.25;;;9.05;;
69463;SDS011;56665;41.106;16.688;2022-07-26T00:50:46;13.57;;;9.77;;
69463;SDS011;56665;41.106;16.688;2022-07-26T00:53:50;14.85;;;10.45;;
69463;SDS011;56665;41.106;16.688;2022-07-26T00:56:54;14.23;;;10.98;;
69463;SDS011;56665;41.106;16.688;2022-07-26T00:59:58;15.17;;;10.53;;
69463;SDS011;56665;41.106;16.688;2022-07-26T01:03:03;12.80;;;9.30;;
69463;SDS011;56665;41.106;16.688;2022-07-26T01:06:07;14.73;;;9.25;;
69463;SDS011;56665;41.106;16.688;2022-07-26T01:09:11;11.55;;;8.80;;
69463;SDS011;56665;41.106;16.688;2022-07-26T01:12:15;12.38;;;9.57;;
69463;SDS011;56665;41.106;16.688;2022-07-26T01:15:20;14.63;;;10.30;;
69463;SDS011;56665;41.106;16.688;2022-07-26T01:18:25;12.40;;;9.80;;
69463;SDS011;56665;41.106;16.688;2022-07-26T01:21:31;14.40;;;9.40;;
69463;SDS011;56665;41.106;16.688;2022-07-26T01:24:35;10.85;;;9.73;;
69463;SDS011;56665;41.106;16.688;2022-07-26T01:27:39;13.80;;;9.65;;
69463;SDS011;56665;41.106;16.688;2022-07-26T01:30:43;13.27;;;9.83;;
69463;SDS011;56665;41.106;16.688;2022-07-26T01:33:47;13.30;;;9.43;;
69463;SDS011;56665;41.106;16.688;2022-07-26T01:36:51;12.60;;;10.07;;
69463;SDS011;56665;41.106;16.688;2022-07-26T01:39:57;12.85;;;10.10;;
69463;SDS011;56665;41.106;16.688;2022-07-26T01:43:01;13.77;;;11.00;;
69463;SDS011;56665;41.106;16.688;2022-07-26T01:46:05;15.70;;;9.83;;
69463;SDS011;56665;41.106;16.688;2022-07-26T01:49:10;16.70;;;9.82;;
69463;SDS011;56665;41.106;16.688;2022-07-26T01:52:14;12.23;;;9.23;;
69463;SDS011;56665;41.106;16.688;2022-07-26T01:55:17;13.63;;;9.20;;
69463;SDS011;56665;41.106;16.688;2022-07-26T01:58:21;14.40;;;10.02;;
69463;SDS011;56665;41.106;16.688;2022-07-26T02:01:26;14.47;;;9.50;;
69463;SDS011;56665;41.106;16.688;2022-07-26T02:04:30;10.82;;;8.68;;
69463;SDS011;56665;41.106;16.688;2022-07-26T02:07:52;14.02;;;8.88;;
69463;SDS011;56665;41.106;16.688;2022-07-26T02:10:55;13.93;;;9.07;;
69463;SDS011;56665;41.106;16.688;2022-07-26T02:14:06;10.80;;;8.35;;
69463;SDS011;56665;41.106;16.688;2022-07-26T02:17:10;10.53;;;8.70;;
69463;SDS011;56665;41.106;16.688;2022-07-26T02:20:13;12.35;;;8.82;;
69463;SDS011;56665;41.106;16.688;2022-07-26T02:23:19;9.90;;;8.57;;
69463;SDS011;56665;41.106;16.688;2022-07-26T02:26:23;13.80;;;8.73;;
69463;SDS011;56665;41.106;16.688;2022-07-26T02:29:28;15.30;;;8.52;;
69463;SDS011;56665;41.106;16.688;2022-07-26T02:32:32;11.43;;;8.77;;
69463;SDS011;56665;41.106;16.688;2022-07-26T02:35:36;12.80;;;8.75;;
69463;SDS011;56665;41.106;16.688;2022-07-26T02:38:39;11.45;;;8.68;;
69463;SDS011;56665;41.106;16.688;2022-07-26T02:41:43;11.45;;;8.13;;
69463;SDS011;56665;41.106;16.688;2022-07-26T02:44:47;11.95;;;8.80;;
69463;SDS011;56665;41.106;16.688;2022-07-26T02:47:52;13.80;;;8.90;;
69463;SDS011;56665;41.106;16.688;2022-07-26T02:50:58;14.32;;;8.55;;
69463;SDS011;56665;41.106;16.688;2022-07-26T02:54:02;14.80;;;8.55;;
69463;SDS011;56665;41.106;16.688;2022-07-26T02:57:06;12.07;;;8.88;;
69463;SDS011;56665;41.106;16.688;2022-07-26T03:00:11;12.48;;;8.48;;
69463;SDS011;56665;41.106;16.688;2022-07-26T03:03:18;13.03;;;8.77;;
69463;SDS011;56665;41.106;16.688;2022-07-26T03:06:22;13.70;;;8.63;;
69463;SDS011;56665;41.106;16.688;2022-07-26T03:09:27;11.07;;;8.10;;
69463;SDS011;56665;41.106;16.688;2022-07-26T03:12:30;10.75;;;8.13;;
69463;SDS011;56665;41.106;16.688;2022-07-26T03:15:35;13.77;;;8.77;;
69463;SDS011;56665;41.106;16.688;2022-07-26T03:18:40;18.90;;;9.20;;
69463;SDS011;56665;41.106;16.688;2022-07-26T03:21:44;14.90;;;9.10;;
69463;SDS011;56665;41.106;16.688;2022-07-26T03:24:48;11.23;;;8.35;;
69463;SDS011;56665;41.106;16.688;2022-07-26T03:27:54;17.45;;;8.80;;
69463;SDS011;56665;41.106;16.688;2022-07-26T03:31:01;12.23;;;8.40;;
69463;SDS011;56665;41.106;16.688;2022-07-26T03:34:05;26.60;;;9.70;;
69463;SDS011;56665;41.106;16.688;2022-07-26T03:37:09;29.58;;;9.35;;
69463;SDS011;56665;41.106;16.688;2022-07-26T03:40:16;35.42;;;11.55;;
69463;SDS011;56665;41.106;16.688;2022-07-26T03:43:22;39.05;;;10.15;;
69463;SDS011;56665;41.106;16.688;2022-07-26T03:46:26;34.33;;;11.60;;
69463;SDS011;56665;41.106;16.688;2022-07-26T03:49:30;36.23;;;9.83;;
69463;SDS011;56665;41.106;16.688;2022-07-26T03:52:34;36.03;;;10.75;;
69463;SDS011;56665;41.106;16.688;2022-07-26T03:55:38;31.85;;;10.30;;
69463;SDS011;56665;41.106;16.688;2022-07-26T03:59:02;36.75;;;11.32;;
69463;SDS011;56665;41.106;16.688;2022-07-26T04:02:07;43.72;;;10.82;;
69463;SDS011;56665;41.106;16.688;2022-07-26T04:05:10;69.37;;;20.83;;
69463;SDS011;56665;41.106;16.688;2022-07-26T04:08:15;95.47;;;45.72;;
69463;SDS011;56665;41.106;16.688;2022-07-26T04:11:18;111.20;;;56.28;;
69463;SDS011;56665;41.106;16.688;2022-07-26T04:14:22;112.85;;;57.33;;
69463;SDS011;56665;41.106;16.688;2022-07-26T04:17:26;82.30;;;42.47;;
69463;SDS011;56665;41.106;16.688;2022-07-26T04:20:30;65.07;;;30.10;;
69463;SDS011;56665;41.106;16.688;2022-07-26T04:23:34;49.47;;;26.23;;
69463;SDS011;56665;41.106;16.688;2022-07-26T04:26:39;35.10;;;18.55;;
69463;SDS011;56665;41.106;16.688;2022-07-26T04:29:42;26.42;;;14.38;;
69463;SDS011;56665;41.106;16.688;2022-07-26T04:32:47;40.45;;;14.35;;
69463;SDS011;56665;41.106;16.688;2022-07-26T04:35:51;64.13;;;15.17;;
69463;SDS011;56665;41.106;16.688;2022-07-26T04:38:55;53.03;;;14.88;;
69463;SDS011;56665;41.106;16.688;2022-07-26T04:41:59;41.22;;;13.48;;
69463;SDS011;56665;41.106;16.688;2022-07-26T04:45:03;44.75;;;13.73;;
69463;SDS011;56665;41.106;16.688;2022-07-26T04:48:07;40.03;;;13.23;;
69463;SDS011;56665;41.106;16.688;2022-07-26T04:51:12;24.13;;;12.20;;
69463;SDS011;56665;41.106;16.688;2022-07-26T04:54:16;25.70;;;12.10;;
69463;SDS011;56665;41.106;16.688;2022-07-26T04:57:22;25.42;;;11.77;;
69463;SDS011;56665;41.106;16.688;2022-07-26T05:00:26;30.63;;;12.27;;
69463;SDS011;56665;41.106;16.688;2022-07-26T05:03:30;21.70;;;12.02;;
69463;SDS011;56665;41.106;16.688;2022-07-26T05:06:36;33.07;;;12.13;;
69463;SDS011;56665;41.106;16.688;2022-07-26T05:09:39;30.67;;;12.70;;
69463;SDS011;56665;41.106;16.688;2022-07-26T05:12:46;44.53;;;14.15;;
69463;SDS011;56665;41.106;16.688;2022-07-26T05:15:51;33.92;;;12.90;;
69463;SDS011;56665;41.106;16.688;2022-07-26T05:18:55;22.67;;;12.05;;
69463;SDS011;56665;41.106;16.688;2022-07-26T05:21:59;24.93;;;11.60;;
69463;SDS011;56665;41.106;16.688;2022-07-26T05:25:03;20.75;;;11.50;;
69463;SDS011;56665;41.106;16.688;2022-07-26T05:28:09;22.30;;;11.68;;
69463;SDS011;56665;41.106;16.688;2022-07-26T05:31:12;31.55;;;12.63;;
69463;SDS011;56665;41.106;16.688;2022-07-26T05:34:16;36.40;;;13.63;;
69463;SDS011;56665;41.106;16.688;2022-07-26T05:37:20;48.37;;;13.63;;
69463;SDS011;56665;41.106;16.688;2022-07-26T05:40:24;42.20;;;13.60;;
69463;SDS011;56665;41.106;16.688;2022-07-26T05:43:29;38.80;;;12.75;;
69463;SDS011;56665;41.106;16.688;2022-07-26T05:46:33;40.80;;;12.68;;
69463;SDS011;56665;41.106;16.688;2022-07-26T05:49:37;40.95;;;13.75;;
69463;SDS011;56665;41.106;16.688;2022-07-26T05:52:41;49.13;;;13.10;;
69463;SDS011;56665;41.106;16.688;2022-07-26T05:55:44;48.03;;;13.52;;
69463;SDS011;56665;41.106;16.688;2022-07-26T05:58:48;32.10;;;12.15;;
69463;SDS011;56665;41.106;16.688;2022-07-26T06:01:52;19.17;;;10.07;;
69463;SDS011;56665;41.106;16.688;2022-07-26T06:04:58;20.25;;;10.25;;
69463;SDS011;56665;41.106;16.688;2022-07-26T06:08:02;20.37;;;9.83;;
69463;SDS011;56665;41.106;16.688;2022-07-26T06:11:06;22.45;;;9.48;;
69463;SDS011;56665;41.106;16.688;2022-07-26T06:14:10;13.30;;;9.32;;
69463;SDS011;56665;41.106;16.688;2022-07-26T06:17:14;10.60;;;8.32;;
69463;SDS011;56665;41.106;16.688;2022-07-26T06:20:18;16.35;;;8.88;;
69463;SDS011;56665;41.106;16.688;2022-07-26T06:23:21;14.20;;;9.10;;
69463;SDS011;56665;41.106;16.688;2022-07-26T06:26:26;12.88;;;8.90;;
69463;SDS011;56665;41.106;16.688;2022-07-26T06:29:30;13.98;;;8.98;;
69463;SDS011;56665;41.106;16.688;2022-07-26T06:32:34;13.48;;;8.82;;
69463;SDS011;56665;41.106;16.688;2022-07-26T06:35:38;12.25;;;8.40;;
69463;SDS011;56665;41.106;16.688;2022-07-26T06:38:41;12.07;;;9.00;;
69463;SDS011;56665;41.106;16.688;2022-07-26T06:41:45;11.55;;;8.65;;
69463;SDS011;56665;41.106;16.688;2022-07-26T06:44:49;12.38;;;8.38;;
69463;SDS011;56665;41.106;16.688;2022-07-26T06:47:52;12.32;;;8.50;;
69463;SDS011;56665;41.106;16.688;2022-07-26T06:50:56;12.00;;;8.60;;
69463;SDS011;56665;41.106;16.688;2022-07-26T06:54:00;16.73;;;8.60;;
69463;SDS011;56665;41.106;16.688;2022-07-26T06:57:04;10.50;;;8.25;;
69463;SDS011;56665;41.106;16.688;2022-07-26T07:00:07;11.27;;;8.25;;
69463;SDS011;56665;41.106;16.688;2022-07-26T07:03:12;11.77;;;8.55;;
69463;SDS011;56665;41.106;16.688;2022-07-26T07:06:16;11.98;;;8.85;;
69463;SDS011;56665;41.106;16.688;2022-07-26T07:09:19;12.93;;;8.50;;
69463;SDS011;56665;41.106;16.688;2022-07-26T07:12:23;11.35;;;7.85;;
69463;SDS011;56665;41.106;16.688;2022-07-26T07:15:27;12.40;;;8.63;;
69463;SDS011;56665;41.106;16.688;2022-07-26T07:18:30;10.40;;;8.43;;
69463;SDS011;56665;41.106;16.688;2022-07-26T07:21:35;12.65;;;8.82;;
69463;SDS011;56665;41.106;16.688;2022-07-26T07:24:39;11.45;;;8.68;;
69463;SDS011;56665;41.106;16.688;2022-07-26T07:27:44;12.17;;;8.20;;
69463;SDS011;56665;41.106;16.688;2022-07-26T07:30:48;11.50;;;8.27;;
69463;SDS011;56665;41.106;16.688;2022-07-26T07:33:52;9.68;;;8.65;;
69463;SDS011;56665;41.106;16.688;2022-07-26T07:36:55;10.18;;;8.38;;
69463;SDS011;56665;41.106;16.688;2022-07-26T07:39:59;9.32;;;8.32;;
69463;SDS011;56665;41.106;16.688;2022-07-26T07:43:03;13.02;;;8.48;;
69463;SDS011;56665;41.106;16.688;2022-07-26T07:46:07;11.10;;;7.95;;
69463;SDS011;56665;41.106;16.688;2022-07-26T07:49:11;9.40;;;8.50;;
69463;SDS011;56665;41.106;16.688;2022-07-26T07:52:15;10.52;;;9.23;;
69463;SDS011;56665;41.106;16.688;2022-07-26T07:55:18;9.43;;;8.52;;
69463;SDS011;56665;41.106;16.688;2022-07-26T07:58:22;9.55;;;8.63;;
69463;SDS011;56665;41.106;16.688;2022-07-26T08:01:26;10.40;;;9.38;;
69463;SDS011;56665;41.106;16.688;2022-07-26T08:04:30;12.20;;;9.45;;
69463;SDS011;56665;41.106;16.688;2022-07-26T08:07:34;10.45;;;9.45;;
69463;SDS011;56665;41.106;16.688;2022-07-26T08:10:37;10.27;;;9.17;;
69463;SDS011;56665;41.106;16.688;2022-07-26T08:13:41;10.18;;;9.27;;
69463;SDS011;56665;41.106;16.688;2022-07-26T08:16:45;10.93;;;9.82;;
69463;SDS011;56665;41.106;16.688;2022-07-26T08:19:48;10.75;;;9.63;;
69463;SDS011;56665;41.106;16.688;2022-07-26T08:22:52;10.85;;;9.70;;
69463;SDS011;56665;41.106;16.688;2022-07-26T08:25:56;10.77;;;9.73;;
69463;SDS011;56665;41.106;16.688;2022-07-26T08:29:00;10.68;;;9.77;;
69463;SDS011;56665;41.106;16.688;2022-07-26T08:32:04;11.50;;;9.80;;
69463;SDS011;56665;41.106;16.688;2022-07-26T08:35:08;11.55;;;10.35;;
69463;SDS011;56665;41.106;16.688;2022-07-26T08:38:11;9.70;;;8.85;;
69463;SDS011;56665;41.106;16.688;2022-07-26T08:41:16;10.70;;;9.63;;
69463;SDS011;56665;41.106;16.688;2022-07-26T08:44:22;11.52;;;10.32;;
69463;SDS011;56665;41.106;16.688;2022-07-26T08:47:26;11.43;;;10.43;;
69463;SDS011;56665;41.106;16.688;2022-07-26T08:50:29;12.98;;;10.60;;
69463;SDS011;56665;41.106;16.688;2022-07-26T08:53:35;13.30;;;11.30;;
69463;SDS011;56665;41.106;16.688;2022-07-26T08:56:41;13.53;;;11.40;;
69463;SDS011;56665;41.106;16.688;2022-07-26T09:03:24;13.15;;;9.63;;
69463;SDS011;56665;41.106;16.688;2022-07-26T09:06:28;14.30;;;9.82;;
69463;SDS011;56665;41.106;16.688;2022-07-26T09:09:33;14.07;;;9.70;;
69463;SDS011;56665;41.106;16.688;2022-07-26T09:12:39;10.70;;;9.60;;
69463;SDS011;56665;41.106;16.688;2022-07-26T09:15:44;14.05;;;10.65;;
69463;SDS011;56665;41.106;16.688;2022-07-26T09:18:47;10.63;;;9.57;;
69463;SDS011;56665;41.106;16.688;2022-07-26T09:21:52;17.00;;;9.70;;
69463;SDS011;56665;41.106;16.688;2022-07-26T09:24:57;12.10;;;10.15;;
69463;SDS011;56665;41.106;16.688;2022-07-26T09:28:02;12.40;;;10.43;;
69463;SDS011;56665;41.106;16.688;2022-07-26T09:31:06;14.57;;;9.85;;
69463;SDS011;56665;41.106;16.688;2022-07-26T09:34:11;13.15;;;9.63;;
69463;SDS011;56665;41.106;16.688;2022-07-26T09:37:15;11.25;;;9.90;;
69463;SDS011;56665;41.106;16.688;2022-07-26T09:40:19;13.40;;;9.80;;
69463;SDS011;56665;41.106;16.688;2022-07-26T09:43:23;11.38;;;9.90;;
69463;SDS011;56665;41.106;16.688;2022-07-26T09:46:27;17.35;;;11.25;;
69463;SDS011;56665;41.106;16.688;2022-07-26T09:49:32;12.27;;;9.48;;
69463;SDS011;56665;41.106;16.688;2022-07-26T09:52:36;16.05;;;10.63;;
69463;SDS011;56665;41.106;16.688;2022-07-26T09:58:47;13.65;;;10.23;;
69463;SDS011;56665;41.106;16.688;2022-07-26T10:01:52;11.20;;;9.60;;
69463;SDS011;56665;41.106;16.688;2022-07-26T10:04:56;12.30;;;10.32;;
69463;SDS011;56665;41.106;16.688;2022-07-26T10:08:00;14.07;;;10.85;;
69463;SDS011;56665;41.106;16.688;2022-07-26T10:11:06;12.25;;;10.20;;
69463;SDS011;56665;41.106;16.688;2022-07-26T10:17:39;13.47;;;9.80;;
69463;SDS011;56665;41.106;16.688;2022-07-26T10:23:57;11.32;;;9.68;;
69463;SDS011;56665;41.106;16.688;2022-07-26T10:27:04;11.75;;;9.90;;
69463;SDS011;56665;41.106;16.688;2022-07-26T10:33:22;15.40;;;10.07;;
69463;SDS011;56665;41.106;16.688;2022-07-26T10:36:30;14.63;;;9.98;;
69463;SDS011;56665;41.106;16.688;2022-07-26T10:39:38;14.73;;;10.40;;
69463;SDS011;56665;41.106;16.688;2022-07-26T10:42:42;13.30;;;9.40;;
69463;SDS011;56665;41.106;16.688;2022-07-26T10:45:46;14.23;;;10.20;;
69463;SDS011;56665;41.106;16.688;2022-07-26T10:49:00;15.23;;;10.03;;
69463;SDS011;56665;41.106;16.688;2022-07-26T10:55:09;14.55;;;9.80;;
69463;SDS011;56665;41.106;16.688;2022-07-26T10:58:13;11.65;;;9.30;;
69463;SDS011;56665;41.106;16.688;2022-07-26T11:01:17;13.32;;;10.30;;
69463;SDS011;56665;41.106;16.688;2022-07-26T11:04:21;13.07;;;9.67;;
69463;SDS011;56665;41.106;16.688;2022-07-26T11:07:29;14.77;;;10.23;;
69463;SDS011;56665;41.106;16.688;2022-07-26T11:10:34;13.93;;;10.02;;
69463;SDS011;56665;41.106;16.688;2022-07-26T11:13:46;13.75;;;9.63;;
69463;SDS011;56665;41.106;16.688;2022-07-26T11:16:49;11.98;;;9.75;;
69463;SDS011;56665;41.106;16.688;2022-07-26T11:19:53;10.93;;;9.70;;
69463;SDS011;56665;41.106;16.688;2022-07-26T11:22:57;16.55;;;10.00;;
69463;SDS011;56665;41.106;16.688;2022-07-26T11:26:08;15.05;;;10.00;;
69463;SDS011;56665;41.106;16.688;2022-07-26T11:29:12;12.63;;;9.30;;
69463;SDS011;56665;41.106;16.688;2022-07-26T11:32:18;12.25;;;9.38;;
69463;SDS011;56665;41.106;16.688;2022-07-26T11:35:24;14.63;;;10.07;;
69463;SDS011;56665;41.106;16.688;2022-07-26T11:42:07;10.90;;;9.80;;
69463;SDS011;56665;41.106;16.688;2022-07-26T11:45:12;15.02;;;9.57;;
69463;SDS011;56665;41.106;16.688;2022-07-26T11:48:17;13.45;;;9.23;;
69463;SDS011;56665;41.106;16.688;2022-07-26T11:51:22;11.27;;;9.23;;
69463;SDS011;56665;41.106;16.688;2022-07-26T11:54:30;11.27;;;9.43;;
69463;SDS011;56665;41.106;16.688;2022-07-26T11:57:35;14.10;;;9.82;;
69463;SDS011;56665;41.106;16.688;2022-07-26T12:00:39;11.63;;;9.38;;
69463;SDS011;56665;41.106;16.688;2022-07-26T12:03:44;14.68;;;10.25;;
69463;SDS011;56665;41.106;16.688;2022-07-26T12:06:50;11.03;;;9.43;;
69463;SDS011;56665;41.106;16.688;2022-07-26T12:09:55;12.15;;;9.98;;
69463;SDS011;56665;41.106;16.688;2022-07-26T12:16:12;12.68;;;10.00;;
69463;SDS011;56665;41.106;16.688;2022-07-26T12:22:20;14.33;;;9.93;;
69463;SDS011;56665;41.106;16.688;2022-07-26T12:25:26;13.18;;;9.98;;
69463;SDS011;56665;41.106;16.688;2022-07-26T12:28:42;11.10;;;9.43;;
69463;SDS011;56665;41.106;16.688;2022-07-26T12:31:58;14.60;;;10.20;;
69463;SDS011;56665;41.106;16.688;2022-07-26T12:35:07;15.45;;;9.73;;
69463;SDS011;56665;41.106;16.688;2022-07-26T12:38:12;13.07;;;9.43;;
69463;SDS011;56665;41.106;16.688;2022-07-26T12:41:36;11.43;;;9.93;;
69463;SDS011;56665;41.106;16.688;2022-07-26T12:44:41;14.98;;;9.48;;
69463;SDS011;56665;41.106;16.688;2022-07-26T12:47:45;13.50;;;9.50;;
69463;SDS011;56665;41.106;16.688;2022-07-26T12:50:53;13.27;;;9.90;;
69463;SDS011;56665;41.106;16.688;2022-07-26T12:53:59;14.87;;;9.50;;
69463;SDS011;56665;41.106;16.688;2022-07-26T12:57:03;12.38;;;10.52;;
69463;SDS011;56665;41.106;16.688;2022-07-26T13:00:08;11.50;;;9.35;;
69463;SDS011;56665;41.106;16.688;2022-07-26T13:03:13;12.35;;;10.02;;
69463;SDS011;56665;41.106;16.688;2022-07-26T13:06:17;11.68;;;10.48;;
69463;SDS011;56665;41.106;16.688;2022-07-26T13:09:21;14.30;;;10.43;;
69463;SDS011;56665;41.106;16.688;2022-07-26T13:12:24;14.07;;;10.55;;
69463;SDS011;56665;41.106;16.688;2022-07-26T13:15:28;17.02;;;10.20;;
69463;SDS011;56665;41.106;16.688;2022-07-26T13:18:33;14.20;;;9.68;;
69463;SDS011;56665;41.106;16.688;2022-07-26T13:21:36;14.02;;;10.23;;
69463;SDS011;56665;41.106;16.688;2022-07-26T13:24:40;11.83;;;9.80;;
69463;SDS011;56665;41.106;16.688;2022-07-26T13:27:43;13.18;;;10.73;;
69463;SDS011;56665;41.106;16.688;2022-07-26T13:30:47;12.65;;;10.07;;
69463;SDS011;56665;41.106;16.688;2022-07-26T13:33:51;13.20;;;11.32;;
69463;SDS011;56665;41.106;16.688;2022-07-26T13:36:55;14.90;;;10.43;;
69463;SDS011;56665;41.106;16.688;2022-07-26T13:40:00;14.00;;;10.47;;
69463;SDS011;56665;41.106;16.688;2022-07-26T13:43:03;15.98;;;10.52;;
69463;SDS011;56665;41.106;16.688;2022-07-26T13:46:07;12.80;;;10.82;;
69463;SDS011;56665;41.106;16.688;2022-07-26T13:49:11;14.77;;;10.07;;
69463;SDS011;56665;41.106;16.688;2022-07-26T13:52:15;13.63;;;11.02;;
69463;SDS011;56665;41.106;16.688;2022-07-26T13:55:18;14.53;;;10.97;;
69463;SDS011;56665;41.106;16.688;2022-07-26T13:58:23;13.68;;;10.65;;
69463;SDS011;56665;41.106;16.688;2022-07-26T14:01:27;12.27;;;10.88;;
69463;SDS011;56665;41.106;16.688;2022-07-26T14:04:31;11.80;;;10.60;;
69463;SDS011;56665;41.106;16.688;2022-07-26T14:07:35;12.05;;;10.63;;
69463;SDS011;56665;41.106;16.688;2022-07-26T14:10:39;15.03;;;11.87;;
69463;SDS011;56665;41.106;16.688;2022-07-26T14:13:42;13.45;;;10.27;;
69463;SDS011;56665;41.106;16.688;2022-07-26T14:16:46;13.10;;;11.35;;
69463;SDS011;56665;41.106;16.688;2022-07-26T14:19:50;13.40;;;11.85;;
69463;SDS011;56665;41.106;16.688;2022-07-26T14:22:53;15.32;;;11.82;;
69463;SDS011;56665;41.106;16.688;2022-07-26T14:26:01;12.80;;;11.50;;
69463;SDS011;56665;41.106;16.688;2022-07-26T14:29:05;15.25;;;13.48;;
69463;SDS011;56665;41.106;16.688;2022-07-26T14:32:08;15.02;;;12.20;;
69463;SDS011;56665;41.106;16.688;2022-07-26T14:35:13;14.77;;;11.70;;
69463;SDS011;56665;41.106;16.688;2022-07-26T14:38:19;16.98;;;11.70;;
69463;SDS011;56665;41.106;16.688;2022-07-26T14:41:23;15.13;;;11.70;;
69463;SDS011;56665;41.106;16.688;2022-07-26T14:44:27;12.55;;;11.25;;
69463;SDS011;56665;41.106;16.688;2022-07-26T14:47:31;13.70;;;11.45;;
69463;SDS011;56665;41.106;16.688;2022-07-26T14:50:34;18.67;;;11.98;;
69463;SDS011;56665;41.106;16.688;2022-07-26T14:53:39;12.73;;;11.45;;
69463;SDS011;56665;41.106;16.688;2022-07-26T14:56:44;12.93;;;11.60;;
69463;SDS011;56665;41.106;16.688;2022-07-26T14:59:48;13.70;;;11.77;;
69463;SDS011;56665;41.106;16.688;2022-07-26T15:02:52;12.30;;;10.73;;
69463;SDS011;56665;41.106;16.688;2022-07-26T15:05:56;13.40;;;11.90;;
69463;SDS011;56665;41.106;16.688;2022-07-26T15:09:00;12.55;;;11.30;;
69463;SDS011;56665;41.106;16.688;2022-07-26T15:12:04;16.97;;;12.00;;
69463;SDS011;56665;41.106;16.688;2022-07-26T15:15:08;15.23;;;12.10;;
69463;SDS011;56665;41.106;16.688;2022-07-26T15:18:12;12.93;;;11.60;;
69463;SDS011;56665;41.106;16.688;2022-07-26T15:21:16;14.15;;;12.10;;
69463;SDS011;56665;41.106;16.688;2022-07-26T15:24:20;15.25;;;12.57;;
69463;SDS011;56665;41.106;16.688;2022-07-26T15:27:24;16.30;;;12.57;;
69463;SDS011;56665;41.106;16.688;2022-07-26T15:30:28;14.77;;;12.18;;
69463;SDS011;56665;41.106;16.688;2022-07-26T15:33:32;18.08;;;12.73;;
69463;SDS011;56665;41.106;16.688;2022-07-26T15:36:35;15.27;;;12.52;;
69463;SDS011;56665;41.106;16.688;2022-07-26T15:39:39;17.77;;;14.27;;
69463;SDS011;56665;41.106;16.688;2022-07-26T15:42:43;14.27;;;12.45;;
69463;SDS011;56665;41.106;16.688;2022-07-26T15:45:47;16.10;;;13.73;;
69463;SDS011;56665;41.106;16.688;2022-07-26T15:48:51;16.08;;;13.30;;
69463;SDS011;56665;41.106;16.688;2022-07-26T15:51:56;14.63;;;13.10;;
69463;SDS011;56665;41.106;16.688;2022-07-26T15:54:59;19.23;;;12.80;;
69463;SDS011;56665;41.106;16.688;2022-07-26T15:58:03;15.52;;;12.43;;
69463;SDS011;56665;41.106;16.688;2022-07-26T16:01:07;19.13;;;13.03;;
69463;SDS011;56665;41.106;16.688;2022-07-26T16:04:10;15.50;;;13.25;;
69463;SDS011;56665;41.106;16.688;2022-07-26T16:07:14;15.88;;;12.52;;
69463;SDS011;56665;41.106;16.688;2022-07-26T16:10:19;17.67;;;12.30;;
69463;SDS011;56665;41.106;16.688;2022-07-26T16:13:22;16.80;;;11.95;;
69463;SDS011;56665;41.106;16.688;2022-07-26T16:16:27;18.92;;;13.18;;
69463;SDS011;56665;41.106;16.688;2022-07-26T16:19:32;18.90;;;13.30;;
69463;SDS011;56665;41.106;16.688;2022-07-26T16:22:35;17.33;;;12.90;;
69463;SDS011;56665;41.106;16.688;2022-07-26T16:25:43;17.23;;;12.75;;
69463;SDS011;56665;41.106;16.688;2022-07-26T16:28:46;13.77;;;12.18;;
69463;SDS011;56665;41.106;16.688;2022-07-26T16:31:50;16.92;;;12.50;;
69463;SDS011;56665;41.106;16.688;2022-07-26T16:34:56;13.40;;;11.87;;
69463;SDS011;56665;41.106;16.688;2022-07-26T16:38:00;20.20;;;13.13;;
69463;SDS011;56665;41.106;16.688;2022-07-26T16:41:04;16.90;;;13.05;;
69463;SDS011;56665;41.106;16.688;2022-07-26T16:44:07;17.60;;;12.63;;
69463;SDS011;56665;41.106;16.688;2022-07-26T16:47:11;15.23;;;12.48;;
69463;SDS011;56665;41.106;16.688;2022-07-26T16:50:15;18.13;;;13.43;;
69463;SDS011;56665;41.106;16.688;2022-07-26T16:53:20;15.77;;;12.38;;
69463;SDS011;56665;41.106;16.688;2022-07-26T16:56:27;15.48;;;12.07;;
69463;SDS011;56665;41.106;16.688;2022-07-26T16:59:30;18.65;;;12.07;;
69463;SDS011;56665;41.106;16.688;2022-07-26T17:02:34;16.17;;;12.07;;
69463;SDS011;56665;41.106;16.688;2022-07-26T17:05:38;16.40;;;11.70;;
69463;SDS011;56665;41.106;16.688;2022-07-26T17:08:45;14.13;;;11.80;;
69463;SDS011;56665;41.106;16.688;2022-07-26T17:11:49;13.48;;;11.68;;
69463;SDS011;56665;41.106;16.688;2022-07-26T17:14:52;14.90;;;11.90;;
69463;SDS011;56665;41.106;16.688;2022-07-26T17:17:56;15.82;;;12.25;;
69463;SDS011;56665;41.106;16.688;2022-07-26T17:21:00;14.47;;;12.20;;
69463;SDS011;56665;41.106;16.688;2022-07-26T17:24:04;14.18;;;12.35;;
69463;SDS011;56665;41.106;16.688;2022-07-26T17:27:08;17.65;;;12.90;;
69463;SDS011;56665;41.106;16.688;2022-07-26T17:30:12;16.23;;;13.98;;
69463;SDS011;56665;41.106;16.688;2022-07-26T17:33:16;16.05;;;12.73;;
69463;SDS011;56665;41.106;16.688;2022-07-26T17:36:24;17.23;;;14.37;;
69463;SDS011;56665;41.106;16.688;2022-07-26T17:39:30;14.18;;;12.70;;
69463;SDS011;56665;41.106;16.688;2022-07-26T17:42:35;15.20;;;13.13;;
69463;SDS011;56665;41.106;16.688;2022-07-26T17:45:40;14.82;;;13.00;;
69463;SDS011;56665;41.106;16.688;2022-07-26T17:48:44;17.63;;;13.68;;
69463;SDS011;56665;41.106;16.688;2022-07-26T17:51:49;14.73;;;12.87;;
69463;SDS011;56665;41.106;16.688;2022-07-26T17:54:58;15.65;;;13.23;;
69463;SDS011;56665;41.106;16.688;2022-07-26T17:58:03;17.58;;;13.55;;
69463;SDS011;56665;41.106;16.688;2022-07-26T18:01:07;16.15;;;13.05;;
69463;SDS011;56665;41.106;16.688;2022-07-26T18:04:11;15.48;;;13.75;;
69463;SDS011;56665;41.106;16.688;2022-07-26T18:07:19;15.53;;;13.30;;
69463;SDS011;56665;41.106;16.688;2022-07-26T18:10:23;17.88;;;14.15;;
69463;SDS011;56665;41.106;16.688;2022-07-26T18:13:29;15.82;;;13.90;;
69463;SDS011;56665;41.106;16.688;2022-07-26T18:16:33;18.23;;;13.50;;
69463;SDS011;56665;41.106;16.688;2022-07-26T18:19:38;20.95;;;15.18;;
69463;SDS011;56665;41.106;16.688;2022-07-26T18:22:42;18.37;;;14.37;;